createdAt,value
2022-12-23T00:00:43.469Z,16.37
2022-12-23T00:03:11.494Z,16.04
2022-12-23T00:05:40.223Z,15.40
2022-12-23T00:08:08.735Z,15.95
2022-12-23T00:10:39.142Z,16.04
2022-12-23T00:13:24.629Z,16.37
2022-12-23T00:16:02.431Z,16.35
2022-12-23T00:18:30.434Z,16.66
2022-12-23T00:21:08.120Z,16.70
2022-12-23T00:23:37.890Z,16.72
2022-12-23T00:26:06.148Z,16.75
2022-12-23T00:28:34.581Z,16.78
2022-12-23T00:31:09.506Z,16.85
2022-12-23T00:33:39.325Z,16.81
2022-12-23T00:36:13.470Z,16.84
2022-12-23T00:38:58.589Z,16.78
2022-12-23T00:41:44.004Z,16.78
2022-12-23T00:44:11.892Z,16.83
2022-12-23T00:46:41.049Z,16.75
2022-12-23T00:49:26.549Z,16.75
2022-12-23T00:51:54.472Z,16.77
2022-12-23T00:54:22.374Z,16.79
2022-12-23T00:56:50.245Z,16.59
2022-12-23T00:59:18.329Z,16.65
2022-12-23T01:02:05.146Z,16.43
2022-12-23T01:04:51.337Z,16.73
2022-12-23T01:07:19.323Z,16.20
2022-12-23T01:09:47.353Z,16.23
2022-12-23T01:12:15.277Z,16.15
2022-12-23T01:14:43.131Z,16.36
2022-12-23T01:17:12.591Z,16.62
2022-12-23T01:19:40.637Z,16.86
2022-12-23T01:22:08.499Z,16.89
2022-12-23T01:24:36.312Z,16.95
2022-12-23T01:27:04.252Z,16.88
2022-12-23T01:29:32.252Z,16.94
2022-12-23T01:32:00.241Z,16.99
2022-12-23T01:34:36.174Z,17.05
2022-12-23T01:37:04.683Z,17.05
2022-12-23T01:39:32.569Z,17.09
2022-12-23T01:42:14.269Z,17.11
2022-12-23T01:44:54.655Z,17.16
2022-12-23T01:47:27.997Z,17.10
2022-12-23T01:50:00.041Z,17.10
2022-12-23T01:52:28.073Z,17.13
2022-12-23T01:54:56.545Z,17.10
2022-12-23T01:57:25.282Z,17.07
2022-12-23T02:00:11.127Z,17.05
2022-12-23T02:02:57.031Z,17.07
2022-12-23T02:05:26.623Z,17.15
2022-12-23T02:08:11.865Z,17.12
2022-12-23T02:10:54.466Z,17.19
2022-12-23T02:13:29.727Z,17.17
2022-12-23T02:16:18.675Z,17.19
2022-12-23T02:18:58.628Z,17.18
2022-12-23T02:21:35.413Z,17.17
2022-12-23T02:24:44.852Z,17.18
2022-12-23T02:27:24.754Z,17.13
2022-12-23T02:30:21.209Z,17.16
2022-12-23T02:33:11.749Z,17.16
2022-12-23T02:35:45.735Z,17.19
2022-12-23T02:38:16.807Z,17.18
2022-12-23T02:40:52.184Z,17.22
2022-12-23T02:43:27.408Z,17.17
2022-12-23T02:46:01.385Z,17.14
2022-12-23T02:48:33.237Z,17.12
2022-12-23T02:51:02.108Z,17.18
2022-12-23T02:53:32.309Z,17.16
2022-12-23T02:56:01.411Z,17.14
2022-12-23T02:58:32.340Z,17.18
2022-12-23T03:01:03.255Z,17.18
2022-12-23T03:03:32.504Z,17.15
2022-12-23T03:06:00.458Z,17.11
2022-12-23T03:08:31.140Z,17.09
2022-12-23T03:11:07.329Z,17.21
2022-12-23T03:13:49.917Z,17.20
2022-12-23T03:16:24.444Z,17.19
2022-12-23T03:19:01.664Z,17.08
2022-12-23T03:21:35.058Z,17.10
2022-12-23T03:24:08.498Z,17.04
2022-12-23T03:26:40.237Z,17.07
2022-12-23T03:29:13.899Z,17.01
2022-12-23T03:31:44.049Z,17.08
2022-12-23T03:34:14.482Z,17.05
2022-12-23T03:36:44.686Z,17.11
2022-12-23T03:39:20.060Z,17.18
2022-12-23T03:41:51.983Z,17.27
2022-12-23T03:44:22.140Z,17.26
2022-12-23T03:46:55.154Z,17.10
2022-12-23T03:49:25.691Z,17.23
2022-12-23T03:51:56.607Z,17.21
2022-12-23T03:54:28.488Z,17.26
2022-12-23T03:57:01.501Z,17.21
2022-12-23T03:59:31.507Z,17.14
2022-12-23T04:02:07.783Z,17.20
2022-12-23T04:04:46.359Z,17.32
2022-12-23T04:07:17.158Z,17.34
2022-12-23T04:09:45.597Z,17.33
2022-12-23T04:12:15.362Z,17.30
2022-12-23T04:14:47.053Z,17.26
2022-12-23T04:17:16.864Z,17.19
2022-12-23T04:19:46.398Z,17.25
2022-12-23T04:22:14.742Z,17.21
2022-12-23T04:24:42.839Z,17.26
2022-12-23T04:27:12.260Z,17.36
2022-12-23T04:29:40.134Z,17.33
2022-12-23T04:32:09.207Z,17.45
2022-12-23T04:34:39.641Z,17.40
2022-12-23T04:37:07.527Z,17.32
2022-12-23T04:39:35.316Z,17.36
2022-12-23T04:42:03.183Z,17.34
2022-12-23T04:44:30.952Z,17.33
2022-12-23T04:46:58.990Z,17.35
2022-12-23T04:49:26.896Z,17.36
2022-12-23T04:51:56.080Z,17.40
2022-12-23T04:54:23.924Z,17.40
2022-12-23T04:56:51.731Z,17.34
2022-12-23T04:59:19.612Z,17.40
2022-12-23T05:01:47.701Z,17.38
2022-12-23T05:04:15.760Z,17.34
2022-12-23T05:06:43.672Z,17.38
2022-12-23T05:09:14.862Z,17.43
2022-12-23T05:11:42.725Z,17.46
2022-12-23T05:14:10.709Z,17.49
2022-12-23T05:16:38.670Z,17.47
2022-12-23T05:19:06.781Z,17.46
2022-12-23T05:21:34.680Z,17.37
2022-12-23T05:24:02.590Z,17.41
2022-12-23T05:26:31.746Z,17.39
2022-12-23T05:29:01.108Z,17.39
2022-12-23T05:31:29.035Z,17.35
2022-12-23T05:34:02.297Z,17.47
2022-12-23T05:36:33.691Z,17.39
2022-12-23T05:39:01.502Z,17.22
2022-12-23T05:41:30.748Z,17.22
2022-12-23T05:43:58.522Z,17.15
2022-12-23T05:46:27.371Z,17.29
2022-12-23T05:48:55.377Z,17.40
2022-12-23T05:51:23.264Z,17.25
2022-12-23T05:53:51.050Z,17.36
2022-12-23T05:56:18.895Z,17.42
2022-12-23T05:58:48.134Z,17.56
2022-12-23T06:01:16.097Z,17.48
2022-12-23T06:03:44.022Z,17.49
2022-12-23T06:06:11.934Z,17.48
2022-12-23T06:08:39.766Z,17.48
2022-12-23T06:11:07.783Z,17.10
2022-12-23T06:13:35.641Z,16.90
2022-12-23T06:16:08.123Z,17.00
2022-12-23T06:18:36.005Z,17.30
2022-12-23T06:21:03.920Z,16.61
2022-12-23T06:23:31.780Z,16.24
2022-12-23T06:26:00.721Z,16.24
2022-12-23T06:28:29.318Z,16.75
2022-12-23T06:30:57.714Z,15.64
2022-12-23T06:33:27.188Z,16.34
2022-12-23T06:35:55.066Z,16.15
2022-12-23T06:38:23.048Z,15.90
2022-12-23T06:40:50.865Z,17.19
2022-12-23T06:43:18.908Z,16.16
2022-12-23T06:45:47.922Z,15.46
2022-12-23T06:48:16.070Z,15.53
2022-12-23T06:50:46.297Z,15.75
2022-12-23T06:53:14.312Z,15.36
2022-12-23T06:55:42.146Z,15.75
2022-12-23T06:58:10.030Z,16.22
2022-12-23T07:00:38.013Z,15.91
2022-12-23T07:03:05.901Z,14.74
2022-12-23T07:05:37.615Z,16.25
2022-12-23T07:08:07.459Z,16.17
2022-12-23T07:10:35.422Z,15.17
2022-12-23T07:13:03.262Z,16.02
2022-12-23T07:15:31.161Z,15.65
2022-12-23T07:17:58.999Z,15.94
2022-12-23T07:20:26.813Z,15.22
2022-12-23T07:22:58.194Z,15.95
2022-12-23T07:25:27.566Z,15.63
2022-12-23T07:27:55.955Z,16.74
2022-12-23T07:30:24.652Z,16.69
2022-12-23T07:32:52.991Z,13.77
2022-12-23T07:35:20.861Z,16.38
2022-12-23T07:37:52.957Z,15.77
2022-12-23T07:40:20.904Z,15.42
2022-12-23T07:42:50.843Z,15.48
2022-12-23T07:45:18.702Z,15.16
2022-12-23T07:47:46.570Z,16.43
2022-12-23T07:50:14.825Z,15.03
2022-12-23T07:52:42.696Z,15.10
2022-12-23T07:55:10.884Z,15.48
2022-12-23T07:57:39.903Z,16.23
2022-12-23T08:00:11.257Z,16.82
2022-12-23T08:02:42.058Z,14.10
2022-12-23T08:05:10.929Z,14.53
2022-12-23T08:07:38.930Z,14.21
2022-12-23T08:10:08.188Z,14.19
2022-12-23T08:12:36.111Z,13.93
2022-12-23T08:15:04.154Z,15.30
2022-12-23T08:17:33.372Z,13.47
2022-12-23T08:20:01.372Z,14.23
2022-12-23T08:22:29.223Z,14.98
2022-12-23T08:24:57.337Z,15.42
2022-12-23T08:27:25.213Z,15.34
2022-12-23T08:29:53.107Z,14.32
2022-12-23T08:32:21.061Z,14.38
2022-12-23T08:34:50.325Z,15.78
2022-12-23T08:37:18.285Z,15.93
2022-12-23T08:39:46.296Z,15.77
2022-12-23T08:42:14.123Z,14.94
2022-12-23T08:44:42.127Z,16.30
2022-12-23T08:47:10.095Z,16.57
2022-12-23T08:49:37.931Z,15.94
2022-12-23T08:52:07.397Z,15.61
2022-12-23T08:54:35.227Z,15.86
2022-12-23T08:57:03.083Z,16.75
2022-12-23T08:59:31.041Z,15.90
2022-12-23T09:02:02.034Z,14.99
2022-12-23T09:04:30.026Z,14.71
2022-12-23T09:06:57.919Z,14.35
2022-12-23T09:09:27.152Z,13.87
2022-12-23T09:11:55.029Z,15.19
2022-12-23T09:14:22.906Z,16.94
2022-12-23T09:16:51.834Z,16.63
2022-12-23T09:19:19.890Z,15.63
2022-12-23T09:21:47.734Z,14.42
2022-12-23T09:24:15.704Z,14.67
2022-12-23T09:26:45.186Z,14.50
2022-12-23T09:29:13.066Z,14.34
2022-12-23T09:31:41.085Z,15.29
2022-12-23T09:34:12.039Z,14.90
2022-12-23T09:36:39.916Z,14.77
2022-12-23T09:39:08.006Z,15.44
2022-12-23T09:41:48.379Z,14.96
2022-12-23T09:44:28.985Z,15.31
2022-12-23T09:46:59.860Z,14.27
2022-12-23T09:49:28.512Z,15.49
2022-12-23T09:52:00.490Z,15.93
2022-12-23T09:54:30.117Z,16.91
2022-12-23T09:57:01.178Z,15.59
2022-12-23T09:59:49.951Z,15.92
2022-12-23T10:02:23.737Z,14.35
2022-12-23T10:04:57.773Z,16.62
2022-12-23T10:07:32.697Z,16.20
2022-12-23T10:10:07.012Z,15.30
2022-12-23T10:12:40.386Z,16.66
2022-12-23T10:15:20.580Z,16.23
2022-12-23T10:17:50.473Z,16.64
2022-12-23T10:20:22.222Z,15.35
2022-12-23T10:22:50.387Z,14.66
2022-12-23T10:25:21.347Z,13.67
2022-12-23T10:27:50.752Z,16.73
2022-12-23T10:30:51.441Z,14.96
2022-12-23T10:33:15.466Z,16.50
2022-12-23T10:35:48.740Z,15.61
2022-12-23T10:38:29.610Z,16.65
2022-12-23T10:41:08.961Z,16.44
2022-12-23T10:44:03.841Z,17.80
2022-12-23T10:46:38.776Z,17.08
2022-12-23T10:49:15.042Z,17.92
2022-12-23T10:51:48.686Z,16.30
2022-12-23T10:54:18.849Z,16.88
2022-12-23T10:56:47.316Z,15.33
2022-12-23T10:59:21.749Z,16.77
2022-12-23T11:01:55.674Z,16.75
2022-12-23T11:04:32.040Z,16.15
2022-12-23T11:07:34.508Z,16.59
2022-12-23T11:09:52.348Z,16.53
2022-12-23T11:12:24.228Z,16.73
2022-12-23T11:14:54.938Z,17.55
2022-12-23T11:17:24.948Z,16.35
2022-12-23T11:20:09.847Z,18.66
2022-12-23T11:22:38.407Z,17.42
2022-12-23T11:25:26.789Z,15.13
2022-12-23T11:27:57.587Z,15.86
2022-12-23T11:30:27.030Z,14.81
2022-12-23T11:32:54.987Z,13.85
2022-12-23T11:35:27.365Z,14.86
2022-12-23T11:37:55.738Z,16.10
2022-12-23T11:40:27.056Z,17.11
2022-12-23T11:42:57.818Z,15.61
2022-12-23T11:45:29.499Z,15.27
2022-12-23T11:47:57.871Z,16.49
2022-12-23T11:50:32.078Z,17.69
2022-12-23T11:53:09.979Z,15.96
2022-12-23T11:55:39.049Z,15.52
2022-12-23T11:58:06.918Z,16.55
2022-12-23T12:00:40.202Z,16.73
2022-12-23T12:03:08.655Z,14.13
2022-12-23T12:05:38.633Z,15.27
2022-12-23T12:08:08.461Z,16.44
2022-12-23T12:10:38.199Z,14.92
2022-12-23T12:13:09.312Z,16.45
2022-12-23T12:15:44.210Z,14.65
2022-12-23T12:18:14.388Z,15.04
2022-12-23T12:20:44.171Z,15.28
2022-12-23T12:23:16.100Z,15.36
2022-12-23T12:25:47.329Z,14.94
2022-12-23T12:28:19.788Z,14.99
2022-12-23T12:30:52.092Z,15.67
2022-12-23T12:33:23.227Z,16.09
2022-12-23T12:35:59.005Z,17.09
2022-12-23T12:38:32.978Z,16.91
2022-12-23T12:41:03.007Z,16.30
2022-12-23T12:43:33.345Z,16.53
2022-12-23T12:46:09.968Z,15.16
2022-12-23T12:48:43.183Z,14.80
2022-12-23T12:51:17.162Z,16.87
2022-12-23T12:54:04.395Z,17.72
2022-12-23T12:56:36.728Z,16.79
2022-12-23T12:59:04.863Z,17.33
2022-12-23T13:01:47.182Z,17.09
2022-12-23T13:04:35.971Z,17.84
2022-12-23T13:07:07.547Z,18.03
2022-12-23T13:09:42.943Z,16.82
2022-12-23T13:12:17.772Z,16.97
2022-12-23T13:14:53.198Z,16.32
2022-12-23T13:17:25.195Z,15.92
2022-12-23T13:19:58.064Z,16.65
2022-12-23T13:22:28.719Z,17.06
2022-12-23T13:25:00.840Z,16.17
2022-12-23T13:27:32.789Z,15.87
2022-12-23T13:30:06.640Z,16.04
2022-12-23T13:32:49.219Z,15.23
2022-12-23T13:35:33.295Z,17.31
2022-12-23T13:38:06.549Z,17.45
2022-12-23T13:40:39.385Z,18.23
2022-12-23T13:43:13.786Z,18.46
2022-12-23T13:45:42.775Z,16.63
2022-12-23T13:48:25.077Z,16.48
2022-12-23T13:50:58.113Z,17.02
2022-12-23T13:53:29.901Z,17.68
2022-12-23T13:56:04.549Z,18.22
2022-12-23T13:58:33.275Z,18.15
2022-12-23T14:01:22.065Z,18.43
2022-12-23T14:03:51.591Z,17.25
2022-12-23T14:06:44.624Z,18.31
2022-12-23T14:09:15.923Z,18.40
2022-12-23T14:11:44.680Z,18.16
2022-12-23T14:14:19.848Z,18.12
2022-12-23T14:16:56.359Z,17.13
2022-12-23T14:19:42.440Z,17.87
2022-12-23T14:22:20.529Z,17.75
2022-12-23T14:25:18.599Z,18.02
2022-12-23T14:27:51.837Z,18.13
2022-12-23T14:30:24.620Z,18.11
2022-12-23T14:32:54.526Z,17.97
2022-12-23T14:35:29.156Z,18.04
2022-12-23T14:38:24.630Z,17.90
2022-12-23T14:41:11.615Z,17.65
2022-12-23T14:43:55.598Z,16.67
2022-12-23T14:46:46.952Z,17.42
2022-12-23T14:49:39.583Z,17.25
2022-12-23T14:52:50.635Z,16.77
2022-12-23T14:55:43.647Z,17.42
2022-12-23T14:58:26.827Z,17.64
2022-12-23T15:01:00.254Z,17.07
2022-12-23T15:03:31.213Z,17.06
2022-12-23T15:06:00.601Z,17.42
2022-12-23T15:08:32.666Z,17.19
2022-12-23T15:11:00.695Z,16.86
2022-12-23T15:13:30.107Z,17.21
2022-12-23T15:16:01.754Z,17.01
2022-12-23T15:18:30.311Z,16.57
2022-12-23T15:21:02.929Z,16.96
2022-12-23T15:23:33.327Z,16.92
2022-12-23T15:26:01.778Z,16.96
2022-12-23T15:28:36.283Z,17.39
2022-12-23T15:31:05.278Z,17.44
2022-12-23T15:36:32.194Z,17.56
2022-12-23T15:39:02.322Z,17.51
2022-12-23T15:41:30.474Z,17.54
2022-12-23T15:44:01.497Z,17.51
2022-12-23T15:46:30.768Z,17.47
2022-12-23T15:48:59.039Z,17.42
2022-12-23T15:52:05.107Z,17.52
2022-12-23T15:54:24.924Z,17.47
2022-12-23T15:56:54.280Z,17.41
2022-12-23T15:59:25.260Z,17.31
2022-12-23T16:01:53.570Z,17.10
2022-12-23T16:04:26.470Z,16.54
2022-12-23T16:06:55.224Z,16.50
2022-12-23T16:09:34.797Z,16.19
2022-12-23T16:12:05.393Z,16.43
2022-12-23T16:14:38.928Z,16.19
2022-12-23T16:17:20.008Z,16.34
2022-12-23T16:19:49.545Z,16.48
2022-12-23T16:22:27.836Z,16.27
2022-12-23T16:25:03.004Z,15.97
2022-12-23T16:27:36.520Z,16.58
2022-12-23T16:30:11.510Z,16.59
2022-12-23T16:32:48.401Z,16.96
2022-12-23T16:35:29.061Z,17.10
2022-12-23T16:37:58.909Z,17.09
2022-12-23T16:40:28.120Z,17.02
2022-12-23T16:42:56.028Z,17.15
2022-12-23T16:45:23.914Z,17.18
2022-12-23T16:47:54.153Z,17.22
2022-12-23T16:50:22.311Z,17.25
2022-12-23T16:52:50.120Z,17.22
2022-12-23T16:55:19.883Z,17.32
2022-12-23T16:57:50.393Z,17.25
2022-12-23T17:00:20.797Z,17.30
2022-12-23T17:02:49.043Z,17.29
2022-12-23T17:05:18.453Z,17.28
2022-12-23T17:07:46.937Z,17.26
2022-12-23T17:10:16.740Z,17.30
2022-12-23T17:12:45.857Z,17.30
2022-12-23T17:15:19.295Z,17.40
2022-12-23T17:17:47.663Z,17.54
2022-12-23T17:20:15.934Z,17.60
2022-12-23T17:22:45.293Z,17.53
2022-12-23T17:25:14.321Z,17.43
2022-12-23T17:27:43.109Z,17.43
2022-12-23T17:30:15.589Z,17.43
2022-12-23T17:32:45.614Z,17.46
2022-12-23T17:35:16.551Z,17.41
2022-12-23T17:37:44.536Z,17.42
2022-12-23T17:40:12.965Z,17.43
2022-12-23T17:42:41.113Z,17.42
2022-12-23T17:45:22.454Z,17.43
2022-12-23T17:47:51.963Z,17.40
2022-12-23T17:50:19.847Z,17.40
2022-12-23T17:52:47.845Z,17.37
2022-12-23T17:55:18.494Z,17.40
2022-12-23T17:57:47.683Z,17.41
2022-12-23T18:00:26.533Z,17.34
2022-12-23T18:03:00.838Z,17.35
2022-12-23T18:05:30.612Z,17.32
2022-12-23T18:07:59.969Z,17.29
2022-12-23T18:10:29.540Z,17.34
2022-12-23T18:12:59.461Z,17.27
2022-12-23T18:15:31.408Z,17.28
2022-12-23T18:18:00.653Z,17.33
2022-12-23T18:20:28.682Z,17.33
2022-12-23T18:22:56.556Z,17.31
2022-12-23T18:25:25.937Z,17.30
2022-12-23T18:27:55.277Z,17.29
2022-12-23T18:30:23.334Z,17.29
2022-12-23T18:32:51.181Z,17.25
2022-12-23T18:35:27.510Z,17.33
2022-12-23T18:37:55.487Z,17.28
2022-12-23T18:40:26.789Z,17.27
2022-12-23T18:42:58.962Z,17.29
2022-12-23T18:45:34.848Z,17.13
2022-12-23T18:48:03.249Z,17.17
2022-12-23T18:50:33.365Z,17.16
2022-12-23T18:53:01.973Z,17.16
2022-12-23T18:55:31.256Z,17.17
2022-12-23T18:58:01.944Z,17.15
2022-12-23T19:00:33.541Z,17.23
2022-12-23T19:03:01.509Z,17.26
2022-12-23T19:05:30.673Z,17.26
2022-12-23T19:08:00.685Z,17.26
2022-12-23T19:10:32.629Z,17.33
2022-12-23T19:13:01.171Z,17.19
2022-12-23T19:15:29.135Z,17.19
2022-12-23T19:17:56.992Z,17.18
2022-12-23T19:20:25.296Z,17.15
2022-12-23T19:22:53.182Z,17.09
2022-12-23T19:25:22.402Z,17.13
2022-12-23T19:27:51.280Z,17.11
2022-12-23T19:30:19.397Z,17.13
2022-12-23T19:32:49.925Z,17.10
2022-12-23T19:35:17.832Z,17.06
2022-12-23T19:37:45.896Z,17.06
2022-12-23T19:40:13.959Z,17.06
2022-12-23T19:42:43.121Z,17.06
2022-12-23T19:45:11.791Z,17.06
2022-12-23T19:47:39.758Z,17.07
2022-12-23T19:50:09.087Z,17.02
2022-12-23T19:52:36.984Z,16.99
2022-12-23T19:55:05.474Z,17.04
2022-12-23T19:57:33.614Z,17.02
2022-12-23T20:00:03.169Z,17.04
2022-12-23T20:02:39.933Z,16.98
2022-12-23T20:05:09.560Z,16.97
2022-12-23T20:07:37.723Z,16.99
2022-12-23T20:10:09.754Z,16.99
2022-12-23T20:12:37.632Z,16.91
2022-12-23T20:15:07.871Z,16.95
2022-12-23T20:17:35.774Z,16.94
2022-12-23T20:20:03.589Z,16.95
2022-12-23T20:22:31.439Z,16.94
2022-12-23T20:24:59.791Z,16.91
2022-12-23T20:27:28.303Z,16.88
2022-12-23T20:29:56.348Z,16.79
2022-12-23T20:32:25.543Z,16.81
2022-12-23T20:34:54.640Z,16.79
2022-12-23T20:37:22.484Z,16.76
2022-12-23T20:39:50.821Z,16.76
2022-12-23T20:42:18.628Z,16.78
2022-12-23T20:44:46.844Z,16.79
2022-12-23T20:47:14.925Z,16.79
2022-12-23T20:49:44.165Z,16.73
2022-12-23T20:52:11.993Z,16.78
2022-12-23T20:54:39.901Z,16.70
2022-12-23T20:57:07.880Z,16.70
2022-12-23T20:59:35.671Z,16.71
2022-12-23T21:02:03.630Z,16.74
2022-12-23T21:04:31.598Z,16.58
2022-12-23T21:07:00.900Z,16.68
2022-12-23T21:09:28.850Z,16.79
2022-12-23T21:11:56.733Z,16.81
2022-12-23T21:14:24.698Z,16.78
2022-12-23T21:16:52.471Z,16.88
2022-12-23T21:19:22.074Z,16.75
2022-12-23T21:21:50.766Z,16.84
2022-12-23T21:24:20.665Z,16.77
2022-12-23T21:26:55.661Z,16.75
2022-12-23T21:29:24.319Z,16.79
2022-12-23T21:31:52.243Z,16.78
2022-12-23T21:34:20.261Z,16.84
2022-12-23T21:36:48.197Z,16.65
2022-12-23T21:39:16.987Z,16.78
2022-12-23T21:41:46.220Z,16.79
2022-12-23T21:44:14.909Z,16.82
2022-12-23T21:46:42.932Z,16.87
2022-12-23T21:49:11.852Z,16.78
2022-12-23T21:51:41.259Z,16.75
2022-12-23T21:54:10.232Z,16.70
2022-12-23T21:56:38.361Z,16.72
2022-12-23T21:59:09.456Z,16.78
2022-12-23T22:01:37.274Z,16.83
2022-12-23T22:04:05.560Z,16.60
2022-12-23T22:06:36.591Z,16.78
2022-12-23T22:09:05.305Z,16.57
2022-12-23T22:11:34.972Z,16.63
2022-12-23T22:14:03.664Z,16.73
2022-12-23T22:16:33.594Z,16.54
2022-12-23T22:19:02.317Z,16.48
2022-12-23T22:21:31.830Z,16.45
2022-12-23T22:24:00.292Z,16.21
2022-12-23T22:26:29.646Z,16.36
2022-12-23T22:28:59.144Z,16.25
2022-12-23T22:31:32.511Z,16.51
2022-12-23T22:34:00.871Z,16.96
2022-12-23T22:36:28.751Z,17.22
2022-12-23T22:38:58.464Z,17.34
2022-12-23T22:41:28.062Z,17.36
2022-12-23T22:43:55.967Z,17.14
2022-12-23T22:46:24.431Z,17.36
2022-12-23T22:48:54.226Z,17.22
2022-12-23T22:51:23.211Z,17.27
2022-12-23T22:53:51.261Z,17.04
2022-12-23T22:56:20.637Z,17.04
2022-12-23T22:58:48.512Z,16.99
2022-12-23T23:01:22.109Z,16.82
2022-12-23T23:03:51.063Z,16.89
2022-12-23T23:06:20.295Z,17.11
2022-12-23T23:08:48.203Z,16.84
2022-12-23T23:11:17.095Z,16.85
2022-12-23T23:13:44.951Z,16.55
2022-12-23T23:16:13.869Z,16.66
2022-12-23T23:18:41.856Z,16.53
2022-12-23T23:21:10.192Z,16.55
2022-12-23T23:23:39.463Z,16.59
2022-12-23T23:26:08.677Z,16.54
2022-12-23T23:28:36.489Z,16.51
2022-12-23T23:31:40.021Z,16.54
2022-12-23T23:33:52.266Z,16.58
2022-12-23T23:36:20.165Z,16.47
2022-12-23T23:38:49.373Z,16.53
2022-12-23T23:41:22.509Z,16.58
2022-12-23T23:43:51.337Z,15.63
2022-12-23T23:46:19.237Z,16.33
2022-12-23T23:48:48.244Z,16.49
2022-12-23T23:51:16.121Z,16.42
2022-12-23T23:53:43.975Z,16.59
2022-12-23T23:56:13.230Z,16.55
2022-12-23T23:58:41.214Z,16.15
